sensor_id;sensor_type;location;lat;lon;timestamp;pressure;altitude;pressure_sealevel;temperature;humidity
55486;BME280;49383;-25.924;28.194;2023-04-16T00:02:17;85756.14;;;21.01;44.23
55486;BME280;49383;-25.924;28.194;2023-04-16T00:04:42;85753.71;;;20.63;44.29
55486;BME280;49383;-25.924;28.194;2023-04-16T00:07:07;85749.02;;;20.78;44.04
55486;BME280;49383;-25.924;28.194;2023-04-16T00:09:32;85745.29;;;21.04;41.16
55486;BME280;49383;-25.924;28.194;2023-04-16T00:11:57;85746.33;;;20.72;42.89
55486;BME280;49383;-25.924;28.194;2023-04-16T00:14:22;85744.46;;;21.24;43.92
55486;BME280;49383;-25.924;28.194;2023-04-16T00:16:47;85744.44;;;20.95;44.40
55486;BME280;49383;-25.924;28.194;2023-04-16T00:19:12;85740.00;;;20.70;44.06
55486;BME280;49383;-25.924;28.194;2023-04-16T00:21:37;85740.53;;;20.85;43.82
55486;BME280;49383;-25.924;28.194;2023-04-16T00:24:02;85736.38;;;20.83;43.78
55486;BME280;49383;-25.924;28.194;2023-04-16T00:26:27;85734.75;;;21.20;41.43
55486;BME280;49383;-25.924;28.194;2023-04-16T00:28:52;85735.09;;;21.23;42.01
55486;BME280;49383;-25.924;28.194;2023-04-16T00:31:17;85734.92;;;21.21;43.29
55486;BME280;49383;-25.924;28.194;2023-04-16T00:33:42;85732.44;;;21.11;44.08
55486;BME280;49383;-25.924;28.194;2023-04-16T00:36:09;85732.19;;;21.00;44.11
55486;BME280;49383;-25.924;28.194;2023-04-16T00:38:32;85731.24;;;20.78;43.92
55486;BME280;49383;-25.924;28.194;2023-04-16T00:40:57;85729.08;;;20.96;43.84
55486;BME280;49383;-25.924;28.194;2023-04-16T00:43:23;85724.93;;;20.85;43.52
55486;BME280;49383;-25.924;28.194;2023-04-16T00:45:48;85724.44;;;20.89;41.53
55486;BME280;49383;-25.924;28.194;2023-04-16T00:48:13;85722.07;;;20.96;42.65
55486;BME280;49383;-25.924;28.194;2023-04-16T00:50:38;85723.12;;;20.76;43.72
55486;BME280;49383;-25.924;28.194;2023-04-16T00:53:03;85719.64;;;21.13;44.04
55486;BME280;49383;-25.924;28.194;2023-04-16T00:55:28;85718.29;;;20.77;44.26
55486;BME280;49383;-25.924;28.194;2023-04-16T00:57:53;85717.92;;;20.79;44.18
55486;BME280;49383;-25.924;28.194;2023-04-16T01:00:18;85713.67;;;20.95;43.86
55486;BME280;49383;-25.924;28.194;2023-04-16T01:02:43;85712.29;;;20.73;43.63
55486;BME280;49383;-25.924;28.194;2023-04-16T01:05:08;85707.34;;;21.07;40.73
55486;BME280;49383;-25.924;28.194;2023-04-16T01:07:33;85705.16;;;20.98;42.24
55486;BME280;49383;-25.924;28.194;2023-04-16T01:09:59;85708.54;;;20.92;43.27
55486;BME280;49383;-25.924;28.194;2023-04-16T01:12:23;85708.39;;;20.59;44.11
55486;BME280;49383;-25.924;28.194;2023-04-16T01:14:48;85707.77;;;20.66;43.83
55486;BME280;49383;-25.924;28.194;2023-04-16T01:17:13;85705.00;;;20.90;43.81
55486;BME280;49383;-25.924;28.194;2023-04-16T01:19:38;85706.37;;;20.93;43.66
55486;BME280;49383;-25.924;28.194;2023-04-16T01:22:04;85707.94;;;21.10;43.41
55486;BME280;49383;-25.924;28.194;2023-04-16T01:24:28;85701.84;;;20.86;40.70
55486;BME280;49383;-25.924;28.194;2023-04-16T01:26:54;85698.52;;;21.04;41.84
55486;BME280;49383;-25.924;28.194;2023-04-16T01:29:19;85700.69;;;21.13;43.18
55486;BME280;49383;-25.924;28.194;2023-04-16T01:31:44;85702.05;;;20.92;43.95
55486;BME280;49383;-25.924;28.194;2023-04-16T01:34:09;85701.04;;;20.88;43.74
55486;BME280;49383;-25.924;28.194;2023-04-16T01:36:34;85700.03;;;20.94;43.57
55486;BME280;49383;-25.924;28.194;2023-04-16T01:38:59;85700.95;;;20.59;43.62
55486;BME280;49383;-25.924;28.194;2023-04-16T01:41:24;85702.85;;;20.78;43.32
55486;BME280;49383;-25.924;28.194;2023-04-16T01:43:49;85703.66;;;20.78;40.94
55486;BME280;49383;-25.924;28.194;2023-04-16T01:46:17;85702.42;;;21.24;41.94
55486;BME280;49383;-25.924;28.194;2023-04-16T01:48:39;85704.31;;;20.80;43.14
55486;BME280;49383;-25.924;28.194;2023-04-16T01:51:05;85701.30;;;21.03;43.50
55486;BME280;49383;-25.924;28.194;2023-04-16T01:53:29;85700.55;;;20.95;43.47
55486;BME280;49383;-25.924;28.194;2023-04-16T01:55:54;85699.88;;;20.84;43.59
55486;BME280;49383;-25.924;28.194;2023-04-16T01:58:20;85699.57;;;20.83;43.61
55486;BME280;49383;-25.924;28.194;2023-04-16T02:00:45;85700.68;;;20.63;41.16
55486;BME280;49383;-25.924;28.194;2023-04-16T02:03:10;85701.89;;;21.04;41.76
55486;BME280;49383;-25.924;28.194;2023-04-16T02:05:35;85707.26;;;20.95;43.28
55486;BME280;49383;-25.924;28.194;2023-04-16T02:08:00;85707.96;;;20.96;43.90
55486;BME280;49383;-25.924;28.194;2023-04-16T02:10:25;85706.04;;;20.85;43.99
55486;BME280;49383;-25.924;28.194;2023-04-16T02:12:50;85703.65;;;20.88;43.88
55486;BME280;49383;-25.924;28.194;2023-04-16T02:15:16;85701.84;;;20.53;44.00
55486;BME280;49383;-25.924;28.194;2023-04-16T02:17:41;85700.60;;;20.91;40.88
55486;BME280;49383;-25.924;28.194;2023-04-16T02:20:07;85698.47;;;20.96;42.18
55486;BME280;49383;-25.924;28.194;2023-04-16T02:22:31;85699.51;;;20.87;43.67
55486;BME280;49383;-25.924;28.194;2023-04-16T02:24:56;85698.99;;;20.76;44.40
55486;BME280;49383;-25.924;28.194;2023-04-16T02:27:21;85701.98;;;20.51;44.13
55486;BME280;49383;-25.924;28.194;2023-04-16T02:29:46;85701.19;;;20.72;44.07
55486;BME280;49383;-25.924;28.194;2023-04-16T02:32:12;85702.21;;;20.79;44.08
55486;BME280;49383;-25.924;28.194;2023-04-16T02:34:37;85701.12;;;20.81;42.27
55486;BME280;49383;-25.924;28.194;2023-04-16T02:37:03;85699.86;;;20.76;42.00
55486;BME280;49383;-25.924;28.194;2023-04-16T02:39:28;85701.21;;;20.76;43.57
55486;BME280;49383;-25.924;28.194;2023-04-16T02:41:53;85701.69;;;20.89;44.17
55486;BME280;49383;-25.924;28.194;2023-04-16T02:44:18;85701.76;;;20.71;44.13
55486;BME280;49383;-25.924;28.194;2023-04-16T02:46:43;85701.71;;;20.86;43.92
55486;BME280;49383;-25.924;28.194;2023-04-16T02:49:08;85704.22;;;20.40;43.83
55486;BME280;49383;-25.924;28.194;2023-04-16T02:51:33;85704.33;;;20.62;43.75
55486;BME280;49383;-25.924;28.194;2023-04-16T02:53:58;85705.12;;;20.54;41.45
55486;BME280;49383;-25.924;28.194;2023-04-16T02:56:23;85705.77;;;20.95;42.68
55486;BME280;49383;-25.924;28.194;2023-04-16T02:58:48;85708.49;;;20.91;43.78
55486;BME280;49383;-25.924;28.194;2023-04-16T03:01:13;85704.82;;;20.93;43.92
55486;BME280;49383;-25.924;28.194;2023-04-16T03:03:38;85704.19;;;20.90;43.78
55486;BME280;49383;-25.924;28.194;2023-04-16T03:06:04;85703.55;;;20.78;43.86
55486;BME280;49383;-25.924;28.194;2023-04-16T03:08:28;85700.07;;;20.74;44.09
55486;BME280;49383;-25.924;28.194;2023-04-16T03:10:53;85700.72;;;20.24;41.62
55486;BME280;49383;-25.924;28.194;2023-04-16T03:13:19;85701.34;;;20.81;42.45
55486;BME280;49383;-25.924;28.194;2023-04-16T03:15:48;85702.43;;;20.52;43.77
55486;BME280;49383;-25.924;28.194;2023-04-16T03:18:09;85700.23;;;20.76;44.29
55486;BME280;49383;-25.924;28.194;2023-04-16T03:20:34;85698.97;;;20.73;44.12
55486;BME280;49383;-25.924;28.194;2023-04-16T03:22:59;85701.54;;;20.53;43.85
55486;BME280;49383;-25.924;28.194;2023-04-16T03:25:24;85704.78;;;20.57;44.13
55486;BME280;49383;-25.924;28.194;2023-04-16T03:27:49;85709.59;;;20.75;43.91
55486;BME280;49383;-25.924;28.194;2023-04-16T03:30:14;85708.98;;;20.71;41.49
55486;BME280;49383;-25.924;28.194;2023-04-16T03:32:39;85710.92;;;20.84;41.80
55486;BME280;49383;-25.924;28.194;2023-04-16T03:35:05;85713.20;;;20.54;43.43
55486;BME280;49383;-25.924;28.194;2023-04-16T03:37:29;85716.26;;;20.66;44.09
55486;BME280;49383;-25.924;28.194;2023-04-16T03:39:54;85717.65;;;20.62;44.23
55486;BME280;49383;-25.924;28.194;2023-04-16T03:42:19;85718.58;;;20.64;44.00
55486;BME280;49383;-25.924;28.194;2023-04-16T03:44:44;85722.10;;;20.53;44.10
55486;BME280;49383;-25.924;28.194;2023-04-16T03:47:09;85728.43;;;20.50;43.72
55486;BME280;49383;-25.924;28.194;2023-04-16T03:49:34;85734.67;;;20.78;42.98
55486;BME280;49383;-25.924;28.194;2023-04-16T03:52:00;85735.53;;;20.68;40.94
55486;BME280;49383;-25.924;28.194;2023-04-16T03:54:25;85736.68;;;20.73;42.74
55486;BME280;49383;-25.924;28.194;2023-04-16T03:56:50;85739.08;;;20.78;43.53
55486;BME280;49383;-25.924;28.194;2023-04-16T03:59:15;85739.21;;;20.77;44.01
55486;BME280;49383;-25.924;28.194;2023-04-16T04:01:40;85739.04;;;20.73;43.76
55486;BME280;49383;-25.924;28.194;2023-04-16T04:04:05;85741.24;;;20.67;43.46
55486;BME280;49383;-25.924;28.194;2023-04-16T04:06:30;85741.42;;;20.57;43.52
55486;BME280;49383;-25.924;28.194;2023-04-16T04:08:55;85742.05;;;20.78;42.67
55486;BME280;49383;-25.924;28.194;2023-04-16T04:11:20;85741.46;;;20.71;41.51
55486;BME280;49383;-25.924;28.194;2023-04-16T04:13:45;85742.46;;;20.66;42.95
55486;BME280;49383;-25.924;28.194;2023-04-16T04:16:10;85746.53;;;20.85;43.70
55486;BME280;49383;-25.924;28.194;2023-04-16T04:18:35;85752.12;;;20.48;43.75
55486;BME280;49383;-25.924;28.194;2023-04-16T04:21:04;85752.80;;;20.51;43.63
55486;BME280;49383;-25.924;28.194;2023-04-16T04:23:26;85754.24;;;20.52;43.75
55486;BME280;49383;-25.924;28.194;2023-04-16T04:25:51;85755.96;;;20.71;41.50
55486;BME280;49383;-25.924;28.194;2023-04-16T04:28:17;85759.83;;;20.67;42.20
55486;BME280;49383;-25.924;28.194;2023-04-16T04:30:42;85763.86;;;20.61;44.07
55486;BME280;49383;-25.924;28.194;2023-04-16T04:33:08;85765.47;;;20.62;44.53
55486;BME280;49383;-25.924;28.194;2023-04-16T04:35:33;85764.27;;;20.48;44.64
55486;BME280;49383;-25.924;28.194;2023-04-16T04:37:58;85765.16;;;20.46;44.63
55486;BME280;49383;-25.924;28.194;2023-04-16T04:40:28;85764.52;;;20.62;42.17
55486;BME280;49383;-25.924;28.194;2023-04-16T04:42:49;85766.73;;;20.78;41.70
55486;BME280;49383;-25.924;28.194;2023-04-16T04:45:15;85769.14;;;20.67;43.30
55486;BME280;49383;-25.924;28.194;2023-04-16T04:47:40;85769.11;;;20.46;44.73
55486;BME280;49383;-25.924;28.194;2023-04-16T04:50:06;85771.25;;;20.48;44.90
55486;BME280;49383;-25.924;28.194;2023-04-16T04:52:31;85770.74;;;20.48;44.74
55486;BME280;49383;-25.924;28.194;2023-04-16T04:54:56;85772.15;;;20.41;44.43
55486;BME280;49383;-25.924;28.194;2023-04-16T04:57:21;85771.46;;;20.28;41.70
55486;BME280;49383;-25.924;28.194;2023-04-16T04:59:46;85770.94;;;20.55;42.50
55486;BME280;49383;-25.924;28.194;2023-04-16T05:02:11;85776.36;;;20.65;43.81
55486;BME280;49383;-25.924;28.194;2023-04-16T05:04:36;85778.03;;;20.58;44.59
55486;BME280;49383;-25.924;28.194;2023-04-16T05:07:02;85782.86;;;21.13;44.35
55486;BME280;49383;-25.924;28.194;2023-04-16T05:09:27;85783.39;;;20.85;43.74
55486;BME280;49383;-25.924;28.194;2023-04-16T05:11:53;85785.87;;;20.76;42.55
55486;BME280;49383;-25.924;28.194;2023-04-16T05:14:18;85785.15;;;20.56;40.55
55486;BME280;49383;-25.924;28.194;2023-04-16T05:16:43;85786.93;;;20.48;42.46
55486;BME280;49383;-25.924;28.194;2023-04-16T05:19:08;85790.13;;;20.64;43.61
55486;BME280;49383;-25.924;28.194;2023-04-16T05:21:33;85793.08;;;20.51;43.84
55486;BME280;49383;-25.924;28.194;2023-04-16T05:23:59;85796.90;;;20.75;43.32
55486;BME280;49383;-25.924;28.194;2023-04-16T05:26:24;85801.89;;;20.73;43.10
55486;BME280;49383;-25.924;28.194;2023-04-16T05:28:50;85798.13;;;20.60;40.55
55486;BME280;49383;-25.924;28.194;2023-04-16T05:31:15;85799.26;;;20.76;42.28
55486;BME280;49383;-25.924;28.194;2023-04-16T05:33:40;85804.37;;;20.65;43.56
55486;BME280;49383;-25.924;28.194;2023-04-16T05:36:05;85805.20;;;20.71;43.91
55486;BME280;49383;-25.924;28.194;2023-04-16T05:38:31;85805.03;;;20.63;43.78
55486;BME280;49383;-25.924;28.194;2023-04-16T05:40:57;85803.17;;;20.33;43.93
55486;BME280;49383;-25.924;28.194;2023-04-16T05:43:22;85801.71;;;20.72;40.95
55486;BME280;49383;-25.924;28.194;2023-04-16T05:45:47;85807.20;;;20.44;42.02
55486;BME280;49383;-25.924;28.194;2023-04-16T05:48:13;85809.24;;;20.53;43.50
55486;BME280;49383;-25.924;28.194;2023-04-16T05:50:38;85810.19;;;20.50;44.42
55486;BME280;49383;-25.924;28.194;2023-04-16T05:53:05;85810.91;;;20.38;44.37
55486;BME280;49383;-25.924;28.194;2023-04-16T05:55:28;85815.22;;;20.61;44.03
55486;BME280;49383;-25.924;28.194;2023-04-16T05:57:54;85814.79;;;20.42;43.99
55486;BME280;49383;-25.924;28.194;2023-04-16T06:00:20;85814.26;;;20.30;40.87
55486;BME280;49383;-25.924;28.194;2023-04-16T06:02:44;85814.92;;;20.62;41.99
55486;BME280;49383;-25.924;28.194;2023-04-16T06:05:09;85814.19;;;20.49;43.11
55486;BME280;49383;-25.924;28.194;2023-04-16T06:07:34;85811.86;;;20.91;43.94
55486;BME280;49383;-25.924;28.194;2023-04-16T06:10:00;85813.90;;;20.45;44.49
55486;BME280;49383;-25.924;28.194;2023-04-16T06:12:25;85816.83;;;20.32;44.59
55486;BME280;49383;-25.924;28.194;2023-04-16T06:14:50;85818.50;;;20.48;44.29
55486;BME280;49383;-25.924;28.194;2023-04-16T06:17:15;85820.36;;;20.22;41.80
55486;BME280;49383;-25.924;28.194;2023-04-16T06:19:40;85824.23;;;20.43;41.92
55486;BME280;49383;-25.924;28.194;2023-04-16T06:22:06;85824.11;;;20.49;43.62
55486;BME280;49383;-25.924;28.194;2023-04-16T06:24:31;85826.80;;;20.77;44.48
55486;BME280;49383;-25.924;28.194;2023-04-16T06:26:56;85824.51;;;20.10;44.76
55486;BME280;49383;-25.924;28.194;2023-04-16T06:29:21;85825.77;;;20.29;44.74
55486;BME280;49383;-25.924;28.194;2023-04-16T06:31:47;85827.94;;;20.53;44.36
55486;BME280;49383;-25.924;28.194;2023-04-16T06:34:11;85830.03;;;20.18;42.16
55486;BME280;49383;-25.924;28.194;2023-04-16T06:36:36;85833.12;;;20.79;42.26
55486;BME280;49383;-25.924;28.194;2023-04-16T06:39:02;85834.51;;;20.61;43.80
55486;BME280;49383;-25.924;28.194;2023-04-16T06:41:28;85837.70;;;20.68;44.44
55486;BME280;49383;-25.924;28.194;2023-04-16T06:43:53;85839.68;;;20.51;44.41
55486;BME280;49383;-25.924;28.194;2023-04-16T06:46:19;85842.73;;;20.61;44.51
55486;BME280;49383;-25.924;28.194;2023-04-16T06:48:44;85842.95;;;20.56;43.10
55486;BME280;49383;-25.924;28.194;2023-04-16T06:51:09;85843.34;;;20.08;41.73
55486;BME280;49383;-25.924;28.194;2023-04-16T06:53:35;85849.48;;;20.79;43.54
55486;BME280;49383;-25.924;28.194;2023-04-16T06:55:59;85851.56;;;20.62;45.60
55486;BME280;49383;-25.924;28.194;2023-04-16T06:58:24;85854.27;;;20.51;47.77
55486;BME280;49383;-25.924;28.194;2023-04-16T07:00:49;85856.61;;;20.83;48.92
55486;BME280;49383;-25.924;28.194;2023-04-16T07:03:14;85856.26;;;20.90;49.54
55486;BME280;49383;-25.924;28.194;2023-04-16T07:05:40;85855.10;;;20.61;48.39
55486;BME280;49383;-25.924;28.194;2023-04-16T07:08:05;85855.31;;;20.67;46.77
55486;BME280;49383;-25.924;28.194;2023-04-16T07:10:30;85856.93;;;20.55;48.04
55486;BME280;49383;-25.924;28.194;2023-04-16T07:12:56;85857.56;;;20.25;48.62
55486;BME280;49383;-25.924;28.194;2023-04-16T07:15:21;85859.31;;;20.66;49.89
55486;BME280;49383;-25.924;28.194;2023-04-16T07:17:46;85858.73;;;20.50;51.66
55486;BME280;49383;-25.924;28.194;2023-04-16T07:20:12;85858.46;;;20.30;49.44
55486;BME280;49383;-25.924;28.194;2023-04-16T07:22:37;85859.10;;;20.58;47.01
55486;BME280;49383;-25.924;28.194;2023-04-16T07:25:03;85860.54;;;20.68;48.05
55486;BME280;49383;-25.924;28.194;2023-04-16T07:27:28;85856.96;;;20.66;49.47
55486;BME280;49383;-25.924;28.194;2023-04-16T07:29:53;85855.88;;;20.69;49.86
55486;BME280;49383;-25.924;28.194;2023-04-16T07:32:20;85856.87;;;20.54;50.45
55486;BME280;49383;-25.924;28.194;2023-04-16T07:34:44;85857.53;;;20.64;50.55
55486;BME280;49383;-25.924;28.194;2023-04-16T07:37:09;85859.26;;;20.49;51.62
55486;BME280;49383;-25.924;28.194;2023-04-16T07:39:35;85858.97;;;20.66;51.63
55486;BME280;49383;-25.924;28.194;2023-04-16T07:42:00;85859.65;;;20.66;51.70
55486;BME280;49383;-25.924;28.194;2023-04-16T07:44:25;85857.50;;;20.56;51.93
55486;BME280;49383;-25.924;28.194;2023-04-16T07:46:50;85856.68;;;20.51;48.57
55486;BME280;49383;-25.924;28.194;2023-04-16T07:49:15;85853.80;;;21.03;47.49
55486;BME280;49383;-25.924;28.194;2023-04-16T07:51:41;85853.22;;;20.64;48.65
55486;BME280;49383;-25.924;28.194;2023-04-16T07:54:06;85853.26;;;20.73;49.28
55486;BME280;49383;-25.924;28.194;2023-04-16T07:56:31;85851.14;;;20.51;50.07
55486;BME280;49383;-25.924;28.194;2023-04-16T07:58:56;85848.07;;;20.71;50.01
55486;BME280;49383;-25.924;28.194;2023-04-16T08:01:21;85846.92;;;20.45;50.77
55486;BME280;49383;-25.924;28.194;2023-04-16T08:03:46;85848.62;;;20.34;50.47
55486;BME280;49383;-25.924;28.194;2023-04-16T08:06:11;85846.26;;;20.61;49.58
55486;BME280;49383;-25.924;28.194;2023-04-16T08:08:36;85842.39;;;20.35;47.33
55486;BME280;49383;-25.924;28.194;2023-04-16T08:11:02;85843.74;;;20.91;47.06
55486;BME280;49383;-25.924;28.194;2023-04-16T08:13:27;85841.62;;;20.58;48.70
55486;BME280;49383;-25.924;28.194;2023-04-16T08:15:52;85842.39;;;20.53;49.17
55486;BME280;49383;-25.924;28.194;2023-04-16T08:18:17;85839.71;;;20.53;49.21
55486;BME280;49383;-25.924;28.194;2023-04-16T08:20:42;85837.45;;;21.00;49.93
55486;BME280;49383;-25.924;28.194;2023-04-16T08:23:07;85837.90;;;20.40;50.41
55486;BME280;49383;-25.924;28.194;2023-04-16T08:25:32;85834.46;;;20.63;50.27
55486;BME280;49383;-25.924;28.194;2023-04-16T08:27:57;85833.13;;;20.78;46.91
55486;BME280;49383;-25.924;28.194;2023-04-16T08:30:22;85829.33;;;21.00;46.13
55486;BME280;49383;-25.924;28.194;2023-04-16T08:32:47;85833.64;;;20.64;47.44
55486;BME280;49383;-25.924;28.194;2023-04-16T08:35:13;85831.66;;;20.67;48.41
55486;BME280;49383;-25.924;28.194;2023-04-16T08:37:37;85830.27;;;20.73;49.06
55486;BME280;49383;-25.924;28.194;2023-04-16T08:40:03;85825.58;;;20.99;49.39
55486;BME280;49383;-25.924;28.194;2023-04-16T08:42:31;85823.39;;;20.66;48.78
55486;BME280;49383;-25.924;28.194;2023-04-16T08:44:54;85821.57;;;20.72;45.47
55486;BME280;49383;-25.924;28.194;2023-04-16T08:47:19;85821.92;;;20.89;46.13
55486;BME280;49383;-25.924;28.194;2023-04-16T08:49:44;85820.46;;;20.68;47.53
55486;BME280;49383;-25.924;28.194;2023-04-16T08:52:10;85819.63;;;20.88;48.19
55486;BME280;49383;-25.924;28.194;2023-04-16T08:54:44;85814.81;;;20.98;48.94
55486;BME280;49383;-25.924;28.194;2023-04-16T08:56:59;85814.40;;;20.88;50.03
55486;BME280;49383;-25.924;28.194;2023-04-16T08:59:26;85811.46;;;20.74;51.17
55486;BME280;49383;-25.924;28.194;2023-04-16T09:01:50;85810.28;;;20.69;49.10
55486;BME280;49383;-25.924;28.194;2023-04-16T09:04:16;85805.68;;;21.16;48.32
55486;BME280;49383;-25.924;28.194;2023-04-16T09:06:42;85803.18;;;20.65;49.26
55486;BME280;49383;-25.924;28.194;2023-04-16T09:09:08;85803.15;;;20.68;49.79
55486;BME280;49383;-25.924;28.194;2023-04-16T09:11:32;85805.34;;;20.60;49.98
55486;BME280;49383;-25.924;28.194;2023-04-16T09:13:57;85799.76;;;20.78;49.75
55486;BME280;49383;-25.924;28.194;2023-04-16T09:16:23;85797.99;;;20.91;49.41
55486;BME280;49383;-25.924;28.194;2023-04-16T09:18:48;85795.88;;;20.88;49.22
55486;BME280;49383;-25.924;28.194;2023-04-16T09:21:13;85791.59;;;20.76;49.48
55486;BME280;49383;-25.924;28.194;2023-04-16T09:23:38;85790.71;;;20.84;50.41
55486;BME280;49383;-25.924;28.194;2023-04-16T09:26:04;85787.35;;;20.49;49.22
55486;BME280;49383;-25.924;28.194;2023-04-16T09:33:20;85777.63;;;20.46;48.85
55486;BME280;49383;-25.924;28.194;2023-04-16T09:35:46;85775.32;;;20.88;48.54
55486;BME280;49383;-25.924;28.194;2023-04-16T09:38:09;85769.46;;;20.90;47.45
55486;BME280;49383;-25.924;28.194;2023-04-16T09:40:35;85767.08;;;20.95;47.94
55486;BME280;49383;-25.924;28.194;2023-04-16T09:43:09;85761.49;;;20.82;47.11
55486;BME280;49383;-25.924;28.194;2023-04-16T09:45:30;85763.03;;;21.07;46.46
55486;BME280;49383;-25.924;28.194;2023-04-16T09:47:52;85759.58;;;21.12;45.44
55486;BME280;49383;-25.924;28.194;2023-04-16T09:50:18;85754.74;;;20.97;45.10
55486;BME280;49383;-25.924;28.194;2023-04-16T09:52:44;85752.66;;;20.99;45.72
55486;BME280;49383;-25.924;28.194;2023-04-16T09:55:08;85750.61;;;20.82;47.03
55486;BME280;49383;-25.924;28.194;2023-04-16T09:57:37;85744.85;;;21.37;48.08
55486;BME280;49383;-25.924;28.194;2023-04-16T10:00:03;85738.36;;;21.12;48.98
55486;BME280;49383;-25.924;28.194;2023-04-16T10:02:26;85736.84;;;20.99;49.62
55486;BME280;49383;-25.924;28.194;2023-04-16T10:04:51;85731.18;;;20.58;50.38
55486;BME280;49383;-25.924;28.194;2023-04-16T10:07:16;85728.62;;;21.02;51.14
55486;BME280;49383;-25.924;28.194;2023-04-16T10:09:41;85725.28;;;21.04;50.70
55486;BME280;49383;-25.924;28.194;2023-04-16T10:12:06;85714.69;;;20.89;48.87
55486;BME280;49383;-25.924;28.194;2023-04-16T10:14:31;85714.44;;;20.78;47.20
55486;BME280;49383;-25.924;28.194;2023-04-16T10:16:57;85708.29;;;20.92;45.55
55486;BME280;49383;-25.924;28.194;2023-04-16T10:19:22;85706.88;;;21.13;46.60
55486;BME280;49383;-25.924;28.194;2023-04-16T10:21:48;85705.28;;;21.60;47.23
55486;BME280;49383;-25.924;28.194;2023-04-16T10:24:14;85706.78;;;21.28;48.29
55486;BME280;49383;-25.924;28.194;2023-04-16T10:26:41;85702.18;;;21.21;49.25
55486;BME280;49383;-25.924;28.194;2023-04-16T10:29:04;85697.37;;;21.13;49.58
55486;BME280;49383;-25.924;28.194;2023-04-16T10:31:29;85696.45;;;21.08;50.21
55486;BME280;49383;-25.924;28.194;2023-04-16T10:33:54;85689.18;;;21.20;49.96
55486;BME280;49383;-25.924;28.194;2023-04-16T10:36:23;85684.51;;;20.93;47.32
55486;BME280;49383;-25.924;28.194;2023-04-16T10:38:46;85679.48;;;20.97;45.41
55486;BME280;49383;-25.924;28.194;2023-04-16T10:41:10;85679.26;;;21.38;44.30
55486;BME280;49383;-25.924;28.194;2023-04-16T10:43:40;85677.10;;;20.95;43.86
55486;BME280;49383;-25.924;28.194;2023-04-16T10:48:25;85666.32;;;20.94;43.63
55486;BME280;49383;-25.924;28.194;2023-04-16T10:50:55;85667.28;;;21.58;43.27
55486;BME280;49383;-25.924;28.194;2023-04-16T10:53:21;85664.99;;;21.40;44.69
55486;BME280;49383;-25.924;28.194;2023-04-16T10:55:40;85662.78;;;21.08;45.85
55486;BME280;49383;-25.924;28.194;2023-04-16T11:00:30;85653.96;;;21.05;47.79
55486;BME280;49383;-25.924;28.194;2023-04-16T11:02:56;85648.12;;;21.18;48.42
55486;BME280;49383;-25.924;28.194;2023-04-16T11:05:22;85647.20;;;20.96;48.94
55486;BME280;49383;-25.924;28.194;2023-04-16T11:07:48;85640.26;;;20.93;49.55
55486;BME280;49383;-25.924;28.194;2023-04-16T11:10:12;85636.79;;;21.18;49.95
55486;BME280;49383;-25.924;28.194;2023-04-16T11:12:37;85634.83;;;21.15;48.53
55486;BME280;49383;-25.924;28.194;2023-04-16T11:15:03;85627.18;;;21.14;44.58
55486;BME280;49383;-25.924;28.194;2023-04-16T11:17:30;85621.45;;;21.28;42.74
55486;BME280;49383;-25.924;28.194;2023-04-16T11:19:51;85619.47;;;21.03;42.30
55486;BME280;49383;-25.924;28.194;2023-04-16T11:22:17;85616.32;;;21.39;41.32
55486;BME280;49383;-25.924;28.194;2023-04-16T11:24:42;85615.45;;;21.06;41.90
55486;BME280;49383;-25.924;28.194;2023-04-16T11:27:07;85609.35;;;21.42;40.61
55486;BME280;49383;-25.924;28.194;2023-04-16T11:29:32;85604.81;;;21.16;40.45
55486;BME280;49383;-25.924;28.194;2023-04-16T11:31:57;85601.02;;;21.17;40.31
55486;BME280;49383;-25.924;28.194;2023-04-16T11:34:24;85598.53;;;21.39;41.31
55486;BME280;49383;-25.924;28.194;2023-04-16T11:36:51;85595.23;;;21.21;40.32
55486;BME280;49383;-25.924;28.194;2023-04-16T11:39:15;85594.14;;;21.12;41.01
55486;BME280;49383;-25.924;28.194;2023-04-16T11:41:43;85596.40;;;20.88;40.38
55486;BME280;49383;-25.924;28.194;2023-04-16T11:46:37;85589.71;;;21.27;40.32
55486;BME280;49383;-25.924;28.194;2023-04-16T11:48:57;85582.05;;;21.44;39.12
55486;BME280;49383;-25.924;28.194;2023-04-16T11:51:22;85579.52;;;21.21;40.01
55486;BME280;49383;-25.924;28.194;2023-04-16T11:53:50;85576.97;;;21.08;39.78
55486;BME280;49383;-25.924;28.194;2023-04-16T11:56:14;85569.43;;;20.98;41.44
55486;BME280;49383;-25.924;28.194;2023-04-16T11:58:39;85565.27;;;21.16;41.19
55486;BME280;49383;-25.924;28.194;2023-04-16T12:01:04;85562.96;;;21.28;40.74
55486;BME280;49383;-25.924;28.194;2023-04-16T12:03:37;85558.90;;;21.42;40.84
55486;BME280;49383;-25.924;28.194;2023-04-16T12:05:55;85556.59;;;21.72;40.79
55486;BME280;49383;-25.924;28.194;2023-04-16T12:08:27;85556.27;;;21.56;40.78
55486;BME280;49383;-25.924;28.194;2023-04-16T12:10:54;85552.74;;;21.35;40.84
55486;BME280;49383;-25.924;28.194;2023-04-16T12:13:12;85551.25;;;21.40;40.65
55486;BME280;49383;-25.924;28.194;2023-04-16T12:15:45;85547.81;;;21.44;40.68
55486;BME280;49383;-25.924;28.194;2023-04-16T12:18:06;85546.51;;;21.47;40.60
55486;BME280;49383;-25.924;28.194;2023-04-16T12:22:53;85544.47;;;21.54;40.54
55486;BME280;49383;-25.924;28.194;2023-04-16T12:25:18;85541.10;;;21.58;40.39
55486;BME280;49383;-25.924;28.194;2023-04-16T12:27:45;85537.92;;;21.56;40.56
55486;BME280;49383;-25.924;28.194;2023-04-16T12:30:09;85535.60;;;21.57;40.58
55486;BME280;49383;-25.924;28.194;2023-04-16T12:32:34;85536.72;;;21.58;40.57
55486;BME280;49383;-25.924;28.194;2023-04-16T12:34:59;85533.12;;;21.57;40.48
55486;BME280;49383;-25.924;28.194;2023-04-16T12:37:25;85527.10;;;21.59;40.47
55486;BME280;49383;-25.924;28.194;2023-04-16T12:39:50;85531.08;;;21.63;40.45
55486;BME280;49383;-25.924;28.194;2023-04-16T12:42:15;85527.12;;;21.65;40.27
55486;BME280;49383;-25.924;28.194;2023-04-16T12:44:41;85528.23;;;21.65;40.43